sensor_id;sensor_type;location;lat;lon;timestamp;temperature;humidity
78448;SHT31;67742;51.972;5.682;2023-03-23T00:01:30;14.5;68.4
78448;SHT31;67742;51.972;5.682;2023-03-23T00:04:05;14.5;68.6
78448;SHT31;67742;51.972;5.682;2023-03-23T00:06:36;14.5;68.4
78448;SHT31;67742;51.972;5.682;2023-03-23T00:09:08;14.5;68.4
78448;SHT31;67742;51.972;5.682;2023-03-23T00:11:40;14.5;68.1
78448;SHT31;67742;51.972;5.682;2023-03-23T00:14:11;14.6;68.1
78448;SHT31;67742;51.972;5.682;2023-03-23T00:16:42;14.6;67.9
78448;SHT31;67742;51.972;5.682;2023-03-23T00:19:13;14.6;67.9
78448;SHT31;67742;51.972;5.682;2023-03-23T00:21:43;14.6;67.7
78448;SHT31;67742;51.972;5.682;2023-03-23T00:24:16;14.6;67.7
78448;SHT31;67742;51.972;5.682;2023-03-23T00:26:47;14.6;67.7
78448;SHT31;67742;51.972;5.682;2023-03-23T00:29:21;14.6;67.5
78448;SHT31;67742;51.972;5.682;2023-03-23T00:32:00;14.6;67.9
78448;SHT31;67742;51.972;5.682;2023-03-23T00:34:32;14.6;67.5
78448;SHT31;67742;51.972;5.682;2023-03-23T00:37:02;14.6;67.4
78448;SHT31;67742;51.972;5.682;2023-03-23T00:39:33;14.6;67.4
78448;SHT31;67742;51.972;5.682;2023-03-23T00:42:05;14.7;67.4
78448;SHT31;67742;51.972;5.682;2023-03-23T00:44:44;14.7;67.5
78448;SHT31;67742;51.972;5.682;2023-03-23T00:47:13;14.7;67.5
78448;SHT31;67742;51.972;5.682;2023-03-23T00:49:44;14.7;67.6
78448;SHT31;67742;51.972;5.682;2023-03-23T00:52:15;14.7;67.8
78448;SHT31;67742;51.972;5.682;2023-03-23T00:54:47;14.7;67.7
78448;SHT31;67742;51.972;5.682;2023-03-23T00:57:18;14.6;67.7
78448;SHT31;67742;51.972;5.682;2023-03-23T00:59:51;14.6;67.9
78448;SHT31;67742;51.972;5.682;2023-03-23T01:02:24;14.6;67.8
78448;SHT31;67742;51.972;5.682;2023-03-23T01:04:54;14.6;68.0
78448;SHT31;67742;51.972;5.682;2023-03-23T01:07:24;14.6;67.6
78448;SHT31;67742;51.972;5.682;2023-03-23T01:09:55;14.6;67.4
78448;SHT31;67742;51.972;5.682;2023-03-23T01:15:07;14.6;67.2
78448;SHT31;67742;51.972;5.682;2023-03-23T01:17:37;14.6;67.3
78448;SHT31;67742;51.972;5.682;2023-03-23T01:20:08;14.6;67.0
78448;SHT31;67742;51.972;5.682;2023-03-23T01:22:41;14.6;67.1
78448;SHT31;67742;51.972;5.682;2023-03-23T01:25:13;14.6;67.1
78448;SHT31;67742;51.972;5.682;2023-03-23T01:27:43;14.6;67.0
78448;SHT31;67742;51.972;5.682;2023-03-23T01:30:14;14.6;67.0
78448;SHT31;67742;51.972;5.682;2023-03-23T01:32:45;14.6;67.1
78448;SHT31;67742;51.972;5.682;2023-03-23T01:35:15;14.6;67.1
78448;SHT31;67742;51.972;5.682;2023-03-23T01:37:45;14.6;67.4
78448;SHT31;67742;51.972;5.682;2023-03-23T01:40:16;14.6;67.4
78448;SHT31;67742;51.972;5.682;2023-03-23T01:42:45;14.6;67.3
78448;SHT31;67742;51.972;5.682;2023-03-23T01:45:31;14.6;67.1
78448;SHT31;67742;51.972;5.682;2023-03-23T01:48:08;14.6;66.9
78448;SHT31;67742;51.972;5.682;2023-03-23T01:50:45;14.6;67.1
78448;SHT31;67742;51.972;5.682;2023-03-23T01:53:20;14.6;66.9
78448;SHT31;67742;51.972;5.682;2023-03-23T01:55:54;14.6;67.0
78448;SHT31;67742;51.972;5.682;2023-03-23T01:58:31;14.6;67.1
78448;SHT31;67742;51.972;5.682;2023-03-23T02:01:06;14.6;66.9
78448;SHT31;67742;51.972;5.682;2023-03-23T02:03:44;14.6;67.0
78448;SHT31;67742;51.972;5.682;2023-03-23T02:06:15;14.6;67.0
78448;SHT31;67742;51.972;5.682;2023-03-23T02:08:48;14.6;67.0
78448;SHT31;67742;51.972;5.682;2023-03-23T02:11:21;14.6;67.1
78448;SHT31;67742;51.972;5.682;2023-03-23T02:13:52;14.6;67.1
78448;SHT31;67742;51.972;5.682;2023-03-23T02:16:33;14.6;67.1
78448;SHT31;67742;51.972;5.682;2023-03-23T02:19:21;14.6;67.3
78448;SHT31;67742;51.972;5.682;2023-03-23T02:22:46;14.6;67.2
78448;SHT31;67742;51.972;5.682;2023-03-23T02:26:07;14.6;67.3
78448;SHT31;67742;51.972;5.682;2023-03-23T02:29:01;14.6;67.5
78448;SHT31;67742;51.972;5.682;2023-03-23T02:31:49;14.6;67.3
78448;SHT31;67742;51.972;5.682;2023-03-23T02:34:29;14.6;67.4
78448;SHT31;67742;51.972;5.682;2023-03-23T02:37:05;14.6;67.3
78448;SHT31;67742;51.972;5.682;2023-03-23T02:39:40;14.6;67.3
78448;SHT31;67742;51.972;5.682;2023-03-23T02:42:16;14.6;67.5
78448;SHT31;67742;51.972;5.682;2023-03-23T02:44:50;14.6;67.5
78448;SHT31;67742;51.972;5.682;2023-03-23T02:47:27;14.6;67.6
78448;SHT31;67742;51.972;5.682;2023-03-23T02:49:59;14.6;67.6
78448;SHT31;67742;51.972;5.682;2023-03-23T02:52:32;14.6;67.6
78448;SHT31;67742;51.972;5.682;2023-03-23T02:55:07;14.6;67.4
78448;SHT31;67742;51.972;5.682;2023-03-23T02:57:39;14.6;67.5
78448;SHT31;67742;51.972;5.682;2023-03-23T03:00:15;14.6;67.5
78448;SHT31;67742;51.972;5.682;2023-03-23T03:02:50;14.7;67.6
78448;SHT31;67742;51.972;5.682;2023-03-23T03:05:30;14.7;67.2
78448;SHT31;67742;51.972;5.682;2023-03-23T03:08:08;14.7;67.0
78448;SHT31;67742;51.972;5.682;2023-03-23T03:10:48;14.8;66.8
78448;SHT31;67742;51.972;5.682;2023-03-23T03:13:34;14.8;66.5
78448;SHT31;67742;51.972;5.682;2023-03-23T03:16:18;14.8;66.4
78448;SHT31;67742;51.972;5.682;2023-03-23T03:18:57;14.8;66.2
78448;SHT31;67742;51.972;5.682;2023-03-23T03:21:32;14.8;65.8
78448;SHT31;67742;51.972;5.682;2023-03-23T03:24:06;14.8;65.8
78448;SHT31;67742;51.972;5.682;2023-03-23T03:26:42;14.8;65.6
78448;SHT31;67742;51.972;5.682;2023-03-23T03:29:18;14.8;65.8
78448;SHT31;67742;51.972;5.682;2023-03-23T03:31:53;14.8;65.8
78448;SHT31;67742;51.972;5.682;2023-03-23T03:34:27;14.8;65.8
78448;SHT31;67742;51.972;5.682;2023-03-23T03:36:59;14.8;65.7
78448;SHT31;67742;51.972;5.682;2023-03-23T03:39:34;14.8;65.7
78448;SHT31;67742;51.972;5.682;2023-03-23T03:42:06;14.8;65.7
78448;SHT31;67742;51.972;5.682;2023-03-23T03:44:37;14.9;65.7
78448;SHT31;67742;51.972;5.682;2023-03-23T03:47:07;14.9;65.7
78448;SHT31;67742;51.972;5.682;2023-03-23T03:49:39;14.9;65.6
78448;SHT31;67742;51.972;5.682;2023-03-23T03:52:09;14.9;65.5
78448;SHT31;67742;51.972;5.682;2023-03-23T03:54:40;14.9;65.4
78448;SHT31;67742;51.972;5.682;2023-03-23T03:57:10;14.9;65.5
78448;SHT31;67742;51.972;5.682;2023-03-23T03:59:43;15.0;65.4
78448;SHT31;67742;51.972;5.682;2023-03-23T04:02:13;15.0;65.3
78448;SHT31;67742;51.972;5.682;2023-03-23T04:04:48;15.0;65.2
78448;SHT31;67742;51.972;5.682;2023-03-23T04:07:20;15.0;65.1
78448;SHT31;67742;51.972;5.682;2023-03-23T04:09:57;15.0;65.0
78448;SHT31;67742;51.972;5.682;2023-03-23T04:12:30;15.0;64.8
78448;SHT31;67742;51.972;5.682;2023-03-23T04:15:01;15.0;64.8
78448;SHT31;67742;51.972;5.682;2023-03-23T04:17:33;15.0;64.9
78448;SHT31;67742;51.972;5.682;2023-03-23T04:20:04;15.0;64.7
78448;SHT31;67742;51.972;5.682;2023-03-23T04:22:40;15.0;64.7
78448;SHT31;67742;51.972;5.682;2023-03-23T04:25:12;15.0;64.6
78448;SHT31;67742;51.972;5.682;2023-03-23T04:27:43;15.0;64.7
78448;SHT31;67742;51.972;5.682;2023-03-23T04:30:14;15.0;64.7
78448;SHT31;67742;51.972;5.682;2023-03-23T04:32:43;15.0;64.4
78448;SHT31;67742;51.972;5.682;2023-03-23T04:35:15;15.0;64.3
78448;SHT31;67742;51.972;5.682;2023-03-23T04:37:46;15.0;64.4
78448;SHT31;67742;51.972;5.682;2023-03-23T04:40:18;15.0;64.5
78448;SHT31;67742;51.972;5.682;2023-03-23T04:42:50;15.0;64.4
78448;SHT31;67742;51.972;5.682;2023-03-23T04:45:24;14.9;64.5
78448;SHT31;67742;51.972;5.682;2023-03-23T04:47:55;14.9;64.3
78448;SHT31;67742;51.972;5.682;2023-03-23T04:50:28;14.9;64.3
78448;SHT31;67742;51.972;5.682;2023-03-23T04:53:02;14.9;64.2
78448;SHT31;67742;51.972;5.682;2023-03-23T04:55:35;14.9;64.0
78448;SHT31;67742;51.972;5.682;2023-03-23T04:58:06;14.9;63.8
78448;SHT31;67742;51.972;5.682;2023-03-23T05:00:36;14.9;63.9
78448;SHT31;67742;51.972;5.682;2023-03-23T05:03:10;14.9;64.0
78448;SHT31;67742;51.972;5.682;2023-03-23T05:05:45;14.9;63.9
78448;SHT31;67742;51.972;5.682;2023-03-23T05:08:20;14.9;63.7
78448;SHT31;67742;51.972;5.682;2023-03-23T05:10:56;14.9;63.8
78448;SHT31;67742;51.972;5.682;2023-03-23T05:13:27;14.8;63.8
78448;SHT31;67742;51.972;5.682;2023-03-23T05:15:58;14.8;63.8
78448;SHT31;67742;51.972;5.682;2023-03-23T05:18:29;14.9;63.8
78448;SHT31;67742;51.972;5.682;2023-03-23T05:21:03;14.9;63.7
78448;SHT31;67742;51.972;5.682;2023-03-23T05:23:33;14.9;63.6
78448;SHT31;67742;51.972;5.682;2023-03-23T05:26:07;14.9;63.7
78448;SHT31;67742;51.972;5.682;2023-03-23T05:28:38;14.9;63.6
78448;SHT31;67742;51.972;5.682;2023-03-23T05:31:09;14.9;63.6
78448;SHT31;67742;51.972;5.682;2023-03-23T05:33:40;14.9;63.6
78448;SHT31;67742;51.972;5.682;2023-03-23T05:36:10;14.9;63.7
78448;SHT31;67742;51.972;5.682;2023-03-23T05:38:41;14.9;63.7
78448;SHT31;67742;51.972;5.682;2023-03-23T05:41:15;14.9;63.5
78448;SHT31;67742;51.972;5.682;2023-03-23T05:43:45;14.9;63.8
78448;SHT31;67742;51.972;5.682;2023-03-23T05:46:14;14.9;64.0
78448;SHT31;67742;51.972;5.682;2023-03-23T05:48:48;14.9;63.5
78448;SHT31;67742;51.972;5.682;2023-03-23T05:51:18;14.9;63.7
78448;SHT31;67742;51.972;5.682;2023-03-23T05:53:48;14.9;63.7
78448;SHT31;67742;51.972;5.682;2023-03-23T05:56:18;14.9;63.6
78448;SHT31;67742;51.972;5.682;2023-03-23T05:58:48;14.9;63.7
78448;SHT31;67742;51.972;5.682;2023-03-23T06:01:19;14.9;63.6
78448;SHT31;67742;51.972;5.682;2023-03-23T06:03:48;14.9;63.7
78448;SHT31;67742;51.972;5.682;2023-03-23T06:06:21;14.9;63.7
78448;SHT31;67742;51.972;5.682;2023-03-23T06:08:52;14.9;63.7
78448;SHT31;67742;51.972;5.682;2023-03-23T06:11:25;14.9;63.7
78448;SHT31;67742;51.972;5.682;2023-03-23T06:13:55;14.9;63.9
78448;SHT31;67742;51.972;5.682;2023-03-23T06:16:26;14.9;63.9
78448;SHT31;67742;51.972;5.682;2023-03-23T06:18:56;14.9;63.8
78448;SHT31;67742;51.972;5.682;2023-03-23T06:21:28;14.9;63.9
78448;SHT31;67742;51.972;5.682;2023-03-23T06:24:00;14.9;63.7
78448;SHT31;67742;51.972;5.682;2023-03-23T06:26:34;14.9;63.9
78448;SHT31;67742;51.972;5.682;2023-03-23T06:29:06;14.9;63.7
78448;SHT31;67742;51.972;5.682;2023-03-23T06:31:41;14.9;64.0
78448;SHT31;67742;51.972;5.682;2023-03-23T06:34:12;14.9;64.0
78448;SHT31;67742;51.972;5.682;2023-03-23T06:36:42;14.9;64.2
78448;SHT31;67742;51.972;5.682;2023-03-23T06:39:14;14.9;64.1
78448;SHT31;67742;51.972;5.682;2023-03-23T06:41:43;14.9;64.2
78448;SHT31;67742;51.972;5.682;2023-03-23T06:44:13;14.9;64.1
78448;SHT31;67742;51.972;5.682;2023-03-23T06:46:44;14.9;64.0
78448;SHT31;67742;51.972;5.682;2023-03-23T06:49:16;14.9;64.1
78448;SHT31;67742;51.972;5.682;2023-03-23T06:51:47;14.9;64.2
78448;SHT31;67742;51.972;5.682;2023-03-23T06:54:17;14.9;64.2
78448;SHT31;67742;51.972;5.682;2023-03-23T06:56:47;14.9;64.0
78448;SHT31;67742;51.972;5.682;2023-03-23T06:59:18;14.9;64.1
78448;SHT31;67742;51.972;5.682;2023-03-23T07:01:49;14.9;64.2
78448;SHT31;67742;51.972;5.682;2023-03-23T07:04:20;14.9;64.3
78448;SHT31;67742;51.972;5.682;2023-03-23T07:06:51;14.9;64.4
78448;SHT31;67742;51.972;5.682;2023-03-23T07:09:20;14.9;64.4
78448;SHT31;67742;51.972;5.682;2023-03-23T07:11:53;14.9;64.3
78448;SHT31;67742;51.972;5.682;2023-03-23T07:14:23;14.9;64.1
78448;SHT31;67742;51.972;5.682;2023-03-23T07:16:53;14.9;64.2
78448;SHT31;67742;51.972;5.682;2023-03-23T07:19:25;14.9;64.3
78448;SHT31;67742;51.972;5.682;2023-03-23T07:21:55;14.9;64.5
78448;SHT31;67742;51.972;5.682;2023-03-23T07:24:25;14.9;64.5
78448;SHT31;67742;51.972;5.682;2023-03-23T07:26:57;14.9;64.7
78448;SHT31;67742;51.972;5.682;2023-03-23T07:29:27;14.9;64.5
78448;SHT31;67742;51.972;5.682;2023-03-23T07:31:57;14.9;64.8
78448;SHT31;67742;51.972;5.682;2023-03-23T07:34:28;14.9;64.7
78448;SHT31;67742;51.972;5.682;2023-03-23T07:36:59;14.9;64.7
78448;SHT31;67742;51.972;5.682;2023-03-23T07:39:29;14.9;64.7
78448;SHT31;67742;51.972;5.682;2023-03-23T07:42:01;14.9;64.4
78448;SHT31;67742;51.972;5.682;2023-03-23T07:44:31;14.9;63.8
78448;SHT31;67742;51.972;5.682;2023-03-23T07:47:01;14.9;64.0
78448;SHT31;67742;51.972;5.682;2023-03-23T07:49:33;14.9;64.1
78448;SHT31;67742;51.972;5.682;2023-03-23T07:52:03;14.9;64.0
78448;SHT31;67742;51.972;5.682;2023-03-23T07:54:33;14.9;64.7
78448;SHT31;67742;51.972;5.682;2023-03-23T07:57:03;14.9;64.9
78448;SHT31;67742;51.972;5.682;2023-03-23T07:59:33;14.9;65.2
78448;SHT31;67742;51.972;5.682;2023-03-23T08:02:03;14.9;65.4
78448;SHT31;67742;51.972;5.682;2023-03-23T08:04:34;14.8;66.2
78448;SHT31;67742;51.972;5.682;2023-03-23T08:07:04;14.8;65.9
78448;SHT31;67742;51.972;5.682;2023-03-23T08:09:35;14.8;66.2
78448;SHT31;67742;51.972;5.682;2023-03-23T08:12:06;14.7;66.8
78448;SHT31;67742;51.972;5.682;2023-03-23T08:14:41;14.7;67.1
78448;SHT31;67742;51.972;5.682;2023-03-23T08:17:11;14.7;67.5
78448;SHT31;67742;51.972;5.682;2023-03-23T08:19:42;14.7;67.9
78448;SHT31;67742;51.972;5.682;2023-03-23T08:22:14;14.7;67.8
78448;SHT31;67742;51.972;5.682;2023-03-23T08:24:43;14.7;67.9
78448;SHT31;67742;51.972;5.682;2023-03-23T08:27:13;14.6;67.8
78448;SHT31;67742;51.972;5.682;2023-03-23T08:29:44;14.6;67.8
78448;SHT31;67742;51.972;5.682;2023-03-23T08:32:18;14.6;68.0
78448;SHT31;67742;51.972;5.682;2023-03-23T08:34:49;14.6;68.0
78448;SHT31;67742;51.972;5.682;2023-03-23T08:37:20;14.6;68.4
78448;SHT31;67742;51.972;5.682;2023-03-23T08:39:53;14.7;68.3
78448;SHT31;67742;51.972;5.682;2023-03-23T08:42:24;14.7;68.4
78448;SHT31;67742;51.972;5.682;2023-03-23T08:44:54;14.7;67.9
78448;SHT31;67742;51.972;5.682;2023-03-23T08:47:24;14.7;67.2
78448;SHT31;67742;51.972;5.682;2023-03-23T08:49:57;14.8;66.4
78448;SHT31;67742;51.972;5.682;2023-03-23T08:52:27;14.8;65.7
78448;SHT31;67742;51.972;5.682;2023-03-23T08:54:58;14.8;66.2
78448;SHT31;67742;51.972;5.682;2023-03-23T08:57:27;14.8;66.1
78448;SHT31;67742;51.972;5.682;2023-03-23T08:59:58;14.8;65.9
78448;SHT31;67742;51.972;5.682;2023-03-23T09:02:34;14.8;65.6
78448;SHT31;67742;51.972;5.682;2023-03-23T09:05:08;14.8;65.6
78448;SHT31;67742;51.972;5.682;2023-03-23T09:07:43;14.8;65.4
78448;SHT31;67742;51.972;5.682;2023-03-23T09:10:14;14.8;65.3
78448;SHT31;67742;51.972;5.682;2023-03-23T09:12:46;14.8;65.6
78448;SHT31;67742;51.972;5.682;2023-03-23T09:15:18;14.8;64.8
78448;SHT31;67742;51.972;5.682;2023-03-23T09:17:50;14.8;64.0
78448;SHT31;67742;51.972;5.682;2023-03-23T09:20:24;14.8;64.3
78448;SHT31;67742;51.972;5.682;2023-03-23T09:22:55;14.8;63.7
78448;SHT31;67742;51.972;5.682;2023-03-23T09:25:27;14.8;63.9
78448;SHT31;67742;51.972;5.682;2023-03-23T09:28:01;14.8;64.2
78448;SHT31;67742;51.972;5.682;2023-03-23T09:30:33;14.8;64.2
78448;SHT31;67742;51.972;5.682;2023-03-23T09:33:05;14.8;64.0
78448;SHT31;67742;51.972;5.682;2023-03-23T09:35:36;14.8;63.6
78448;SHT31;67742;51.972;5.682;2023-03-23T09:38:10;14.8;63.5
78448;SHT31;67742;51.972;5.682;2023-03-23T09:40:46;14.8;63.5
78448;SHT31;67742;51.972;5.682;2023-03-23T09:43:50;14.8;63.7
78448;SHT31;67742;51.972;5.682;2023-03-23T09:46:45;14.8;63.5
78448;SHT31;67742;51.972;5.682;2023-03-23T09:49:23;14.9;63.6
78448;SHT31;67742;51.972;5.682;2023-03-23T09:51:59;14.9;63.2
78448;SHT31;67742;51.972;5.682;2023-03-23T09:54:35;14.9;62.5
78448;SHT31;67742;51.972;5.682;2023-03-23T09:57:20;14.9;63.1
78448;SHT31;67742;51.972;5.682;2023-03-23T10:00:01;14.9;63.2
78448;SHT31;67742;51.972;5.682;2023-03-23T10:02:38;15.0;63.1
78448;SHT31;67742;51.972;5.682;2023-03-23T10:05:19;15.0;63.0
78448;SHT31;67742;51.972;5.682;2023-03-23T10:07:52;15.1;62.8
78448;SHT31;67742;51.972;5.682;2023-03-23T10:10:31;15.1;61.9
78448;SHT31;67742;51.972;5.682;2023-03-23T10:13:12;15.2;62.6
78448;SHT31;67742;51.972;5.682;2023-03-23T10:15:46;15.3;61.2
78448;SHT31;67742;51.972;5.682;2023-03-23T10:18:24;15.4;61.0
78448;SHT31;67742;51.972;5.682;2023-03-23T10:20:58;15.5;60.6
78448;SHT31;67742;51.972;5.682;2023-03-23T10:23:41;15.5;60.2
78448;SHT31;67742;51.972;5.682;2023-03-23T10:26:21;15.6;59.8
78448;SHT31;67742;51.972;5.682;2023-03-23T10:29:13;15.7;60.7
78448;SHT31;67742;51.972;5.682;2023-03-23T10:31:43;15.7;59.9
78448;SHT31;67742;51.972;5.682;2023-03-23T10:34:30;15.8;60.5
78448;SHT31;67742;51.972;5.682;2023-03-23T10:37:05;15.9;60.3
78448;SHT31;67742;51.972;5.682;2023-03-23T10:39:44;15.9;59.7
78448;SHT31;67742;51.972;5.682;2023-03-23T10:42:24;16.0;60.4
78448;SHT31;67742;51.972;5.682;2023-03-23T10:44:56;16.1;58.7
78448;SHT31;67742;51.972;5.682;2023-03-23T10:47:27;16.2;58.3
78448;SHT31;67742;51.972;5.682;2023-03-23T10:50:00;16.2;56.8
78448;SHT31;67742;51.972;5.682;2023-03-23T10:52:34;16.3;56.3
78448;SHT31;67742;51.972;5.682;2023-03-23T10:55:10;16.3;54.9
78448;SHT31;67742;51.972;5.682;2023-03-23T10:57:43;16.3;55.0
78448;SHT31;67742;51.972;5.682;2023-03-23T11:00:21;16.4;55.7
78448;SHT31;67742;51.972;5.682;2023-03-23T11:03:00;16.4;54.7
78448;SHT31;67742;51.972;5.682;2023-03-23T11:05:36;16.4;54.5
78448;SHT31;67742;51.972;5.682;2023-03-23T11:08:19;16.4;55.8
78448;SHT31;67742;51.972;5.682;2023-03-23T11:11:24;16.5;56.6
78448;SHT31;67742;51.972;5.682;2023-03-23T11:14:00;16.6;56.8
78448;SHT31;67742;51.972;5.682;2023-03-23T11:16:42;16.6;56.1
78448;SHT31;67742;51.972;5.682;2023-03-23T11:19:20;16.7;55.9
78448;SHT31;67742;51.972;5.682;2023-03-23T11:21:54;16.8;56.3
78448;SHT31;67742;51.972;5.682;2023-03-23T11:24:27;16.9;55.2
78448;SHT31;67742;51.972;5.682;2023-03-23T11:26:59;16.9;55.1
78448;SHT31;67742;51.972;5.682;2023-03-23T11:29:31;16.9;55.2
78448;SHT31;67742;51.972;5.682;2023-03-23T11:32:13;17.0;54.0
78448;SHT31;67742;51.972;5.682;2023-03-23T11:34:47;17.0;53.3
78448;SHT31;67742;51.972;5.682;2023-03-23T11:37:28;17.0;53.3
78448;SHT31;67742;51.972;5.682;2023-03-23T11:40:01;17.0;52.9
78448;SHT31;67742;51.972;5.682;2023-03-23T11:42:43;17.0;53.0
78448;SHT31;67742;51.972;5.682;2023-03-23T11:45:36;17.0;53.9
78448;SHT31;67742;51.972;5.682;2023-03-23T11:48:25;17.0;54.6
78448;SHT31;67742;51.972;5.682;2023-03-23T11:51:01;17.0;53.9
78448;SHT31;67742;51.972;5.682;2023-03-23T11:53:45;17.0;53.8
78448;SHT31;67742;51.972;5.682;2023-03-23T11:56:23;17.0;54.4
78448;SHT31;67742;51.972;5.682;2023-03-23T11:58:57;17.1;53.9
78448;SHT31;67742;51.972;5.682;2023-03-23T12:01:50;17.1;53.5
78448;SHT31;67742;51.972;5.682;2023-03-23T12:04:39;17.2;53.0
78448;SHT31;67742;51.972;5.682;2023-03-23T12:07:17;17.2;52.2
78448;SHT31;67742;51.972;5.682;2023-03-23T12:10:02;17.2;52.2
78448;SHT31;67742;51.972;5.682;2023-03-23T12:12:44;17.3;51.5
78448;SHT31;67742;51.972;5.682;2023-03-23T12:15:25;17.3;51.9
78448;SHT31;67742;51.972;5.682;2023-03-23T12:18:04;17.3;52.1
78448;SHT31;67742;51.972;5.682;2023-03-23T12:20:50;17.3;52.9
78448;SHT31;67742;51.972;5.682;2023-03-23T12:23:25;17.3;53.1
78448;SHT31;67742;51.972;5.682;2023-03-23T12:26:14;17.3;53.8
78448;SHT31;67742;51.972;5.682;2023-03-23T12:29:15;17.3;54.8
78448;SHT31;67742;51.972;5.682;2023-03-23T12:31:59;17.3;54.8
78448;SHT31;67742;51.972;5.682;2023-03-23T12:34:43;17.2;55.4
78448;SHT31;67742;51.972;5.682;2023-03-23T12:37:44;17.1;55.9
78448;SHT31;67742;51.972;5.682;2023-03-23T12:40:33;17.0;57.1
78448;SHT31;67742;51.972;5.682;2023-03-23T12:43:15;16.9;58.0
78448;SHT31;67742;51.972;5.682;2023-03-23T12:46:05;16.8;58.8
78448;SHT31;67742;51.972;5.682;2023-03-23T12:48:40;16.7;59.5
78448;SHT31;67742;51.972;5.682;2023-03-23T12:51:16;16.6;59.5
78448;SHT31;67742;51.972;5.682;2023-03-23T12:53:55;16.6;61.1
78448;SHT31;67742;51.972;5.682;2023-03-23T12:56:32;16.5;61.2
78448;SHT31;67742;51.972;5.682;2023-03-23T12:59:14;16.5;61.4
78448;SHT31;67742;51.972;5.682;2023-03-23T13:01:50;16.5;62.0
78448;SHT31;67742;51.972;5.682;2023-03-23T13:04:27;16.5;62.0
78448;SHT31;67742;51.972;5.682;2023-03-23T13:07:02;16.4;61.7
78448;SHT31;67742;51.972;5.682;2023-03-23T13:09:44;16.4;60.6
78448;SHT31;67742;51.972;5.682;2023-03-23T13:12:17;16.4;59.7
78448;SHT31;67742;51.972;5.682;2023-03-23T13:14:55;16.4;59.7
78448;SHT31;67742;51.972;5.682;2023-03-23T13:17:44;16.4;60.3
78448;SHT31;67742;51.972;5.682;2023-03-23T13:20:29;16.3;61.5
78448;SHT31;67742;51.972;5.682;2023-03-23T13:23:07;16.3;60.5
78448;SHT31;67742;51.972;5.682;2023-03-23T13:26:11;16.3;61.5
78448;SHT31;67742;51.972;5.682;2023-03-23T13:28:55;16.3;61.1
78448;SHT31;67742;51.972;5.682;2023-03-23T13:31:28;16.3;60.3
78448;SHT31;67742;51.972;5.682;2023-03-23T13:34:04;16.4;60.6
78448;SHT31;67742;51.972;5.682;2023-03-23T13:36:37;16.4;60.9
78448;SHT31;67742;51.972;5.682;2023-03-23T13:39:20;16.4;59.7
78448;SHT31;67742;51.972;5.682;2023-03-23T13:42:01;16.5;58.7
78448;SHT31;67742;51.972;5.682;2023-03-23T13:45:04;16.5;58.5
78448;SHT31;67742;51.972;5.682;2023-03-23T13:47:38;16.5;59.4
78448;SHT31;67742;51.972;5.682;2023-03-23T13:50:27;16.6;59.7
78448;SHT31;67742;51.972;5.682;2023-03-23T13:53:11;16.6;58.8
78448;SHT31;67742;51.972;5.682;2023-03-23T13:55:42;16.6;58.8
78448;SHT31;67742;51.972;5.682;2023-03-23T13:58:24;16.6;59.5
78448;SHT31;67742;51.972;5.682;2023-03-23T14:01:13;16.7;58.6
78448;SHT31;67742;51.972;5.682;2023-03-23T14:03:47;16.7;59.2
78448;SHT31;67742;51.972;5.682;2023-03-23T14:06:21;16.7;60.7
78448;SHT31;67742;51.972;5.682;2023-03-23T14:08:55;16.7;60.1
78448;SHT31;67742;51.972;5.682;2023-03-23T14:11:29;16.7;59.8
78448;SHT31;67742;51.972;5.682;2023-03-23T14:14:12;16.7;60.2
78448;SHT31;67742;51.972;5.682;2023-03-23T14:16:44;16.7;60.4
78448;SHT31;67742;51.972;5.682;2023-03-23T14:19:19;16.7;61.2
78448;SHT31;67742;51.972;5.682;2023-03-23T14:21:52;16.7;61.3
78448;SHT31;67742;51.972;5.682;2023-03-23T14:24:27;16.7;61.0
78448;SHT31;67742;51.972;5.682;2023-03-23T14:27:12;16.7;61.5
78448;SHT31;67742;51.972;5.682;2023-03-23T14:29:59;16.7;60.2
78448;SHT31;67742;51.972;5.682;2023-03-23T14:32:31;16.7;60.0
78448;SHT31;67742;51.972;5.682;2023-03-23T14:37:44;16.6;60.5
78448;SHT31;67742;51.972;5.682;2023-03-23T14:40:17;16.6;58.7
78448;SHT31;67742;51.972;5.682;2023-03-23T14:42:50;16.7;59.2
78448;SHT31;67742;51.972;5.682;2023-03-23T14:45:23;16.7;59.3
78448;SHT31;67742;51.972;5.682;2023-03-23T14:47:56;16.7;59.8
78448;SHT31;67742;51.972;5.682;2023-03-23T14:50:29;16.7;59.4
78448;SHT31;67742;51.972;5.682;2023-03-23T14:53:24;16.8;59.0
78448;SHT31;67742;51.972;5.682;2023-03-23T14:55:59;16.8;58.5
78448;SHT31;67742;51.972;5.682;2023-03-23T14:58:30;16.8;58.7
78448;SHT31;67742;51.972;5.682;2023-03-23T15:01:06;16.9;58.3
78448;SHT31;67742;51.972;5.682;2023-03-23T15:03:41;16.9;58.1
78448;SHT31;67742;51.972;5.682;2023-03-23T15:06:20;17.0;57.7
78448;SHT31;67742;51.972;5.682;2023-03-23T15:08:54;17.0;56.8
78448;SHT31;67742;51.972;5.682;2023-03-23T15:11:29;17.1;56.6
78448;SHT31;67742;51.972;5.682;2023-03-23T15:14:07;17.1;56.1
78448;SHT31;67742;51.972;5.682;2023-03-23T15:16:38;17.1;55.7
78448;SHT31;67742;51.972;5.682;2023-03-23T15:19:17;17.1;55.7
78448;SHT31;67742;51.972;5.682;2023-03-23T15:21:52;17.2;55.7
78448;SHT31;67742;51.972;5.682;2023-03-23T15:24:25;17.2;55.8
78448;SHT31;67742;51.972;5.682;2023-03-23T15:27:14;17.2;55.8
78448;SHT31;67742;51.972;5.682;2023-03-23T15:31:49;17.2;54.7
78448;SHT31;67742;51.972;5.682;2023-03-23T15:34:32;17.3;55.4
78448;SHT31;67742;51.972;5.682;2023-03-23T15:37:19;17.3;55.0
78448;SHT31;67742;51.972;5.682;2023-03-23T15:39:52;17.4;54.6
78448;SHT31;67742;51.972;5.682;2023-03-23T15:42:38;17.4;54.8
78448;SHT31;67742;51.972;5.682;2023-03-23T15:45:26;17.4;54.9
78448;SHT31;67742;51.972;5.682;2023-03-23T15:48:09;17.4;55.0
78448;SHT31;67742;51.972;5.682;2023-03-23T15:50:40;17.5;54.9
78448;SHT31;67742;51.972;5.682;2023-03-23T15:53:26;17.5;55.2
78448;SHT31;67742;51.972;5.682;2023-03-23T15:55:54;17.5;55.1
78448;SHT31;67742;51.972;5.682;2023-03-23T15:58:25;17.5;55.3
78448;SHT31;67742;51.972;5.682;2023-03-23T16:00:55;17.5;55.4
78448;SHT31;67742;51.972;5.682;2023-03-23T16:03:41;17.5;55.7
78448;SHT31;67742;51.972;5.682;2023-03-23T16:06:13;17.5;56.0
78448;SHT31;67742;51.972;5.682;2023-03-23T16:08:46;17.6;55.5
78448;SHT31;67742;51.972;5.682;2023-03-23T16:11:18;17.6;55.9
78448;SHT31;67742;51.972;5.682;2023-03-23T16:13:51;17.6;55.9
78448;SHT31;67742;51.972;5.682;2023-03-23T16:16:25;17.6;55.2
78448;SHT31;67742;51.972;5.682;2023-03-23T16:18:56;17.6;54.5
78448;SHT31;67742;51.972;5.682;2023-03-23T16:21:27;17.7;54.0
78448;SHT31;67742;51.972;5.682;2023-03-23T16:23:59;17.6;53.5
78448;SHT31;67742;51.972;5.682;2023-03-23T16:26:29;17.6;53.3
78448;SHT31;67742;51.972;5.682;2023-03-23T16:28:59;17.6;53.7
78448;SHT31;67742;51.972;5.682;2023-03-23T16:31:34;17.5;53.7
78448;SHT31;67742;51.972;5.682;2023-03-23T16:34:12;17.5;54.0
78448;SHT31;67742;51.972;5.682;2023-03-23T16:36:45;17.5;53.9
78448;SHT31;67742;51.972;5.682;2023-03-23T16:39:14;17.5;54.2
78448;SHT31;67742;51.972;5.682;2023-03-23T16:41:46;17.4;54.0
78448;SHT31;67742;51.972;5.682;2023-03-23T16:44:15;17.4;54.2
78448;SHT31;67742;51.972;5.682;2023-03-23T16:46:56;17.4;53.8
78448;SHT31;67742;51.972;5.682;2023-03-23T16:49:26;17.3;54.3
78448;SHT31;67742;51.972;5.682;2023-03-23T16:51:57;17.3;53.9
78448;SHT31;67742;51.972;5.682;2023-03-23T16:54:28;17.3;54.0
78448;SHT31;67742;51.972;5.682;2023-03-23T16:56:58;17.3;54.1
78448;SHT31;67742;51.972;5.682;2023-03-23T16:59:28;17.2;54.1
78448;SHT31;67742;51.972;5.682;2023-03-23T17:01:59;17.2;54.6